sensor_id;sensor_type;location;lat;lon;timestamp;P1;durP1;ratioP1;P2;durP2;ratioP2
19167;SDS011;9716;53.114;18.040;2023-02-07T00:01:34;76.33;;;27.50;;
19167;SDS011;9716;53.114;18.040;2023-02-07T00:04:03;72.70;;;27.40;;
19167;SDS011;9716;53.114;18.040;2023-02-07T00:06:34;76.57;;;28.10;;
19167;SDS011;9716;53.114;18.040;2023-02-07T00:09:04;92.47;;;31.53;;
19167;SDS011;9716;53.114;18.040;2023-02-07T00:11:34;72.20;;;30.47;;
19167;SDS011;9716;53.114;18.040;2023-02-07T00:14:07;73.47;;;30.30;;
19167;SDS011;9716;53.114;18.040;2023-02-07T00:16:37;86.83;;;31.97;;
19167;SDS011;9716;53.114;18.040;2023-02-07T00:19:07;83.33;;;31.13;;
19167;SDS011;9716;53.114;18.040;2023-02-07T00:21:36;74.17;;;29.00;;
19167;SDS011;9716;53.114;18.040;2023-02-07T00:24:05;74.40;;;30.93;;
19167;SDS011;9716;53.114;18.040;2023-02-07T00:26:34;67.63;;;29.23;;
19167;SDS011;9716;53.114;18.040;2023-02-07T00:29:03;79.13;;;30.50;;
19167;SDS011;9716;53.114;18.040;2023-02-07T00:31:32;80.00;;;30.60;;
19167;SDS011;9716;53.114;18.040;2023-02-07T00:34:03;80.20;;;30.87;;
19167;SDS011;9716;53.114;18.040;2023-02-07T00:36:33;80.53;;;31.90;;
19167;SDS011;9716;53.114;18.040;2023-02-07T00:39:05;86.10;;;32.30;;
19167;SDS011;9716;53.114;18.040;2023-02-07T00:41:35;75.17;;;30.10;;
19167;SDS011;9716;53.114;18.040;2023-02-07T00:44:05;76.93;;;31.43;;
19167;SDS011;9716;53.114;18.040;2023-02-07T00:46:34;77.57;;;32.70;;
19167;SDS011;9716;53.114;18.040;2023-02-07T00:49:03;90.83;;;31.97;;
19167;SDS011;9716;53.114;18.040;2023-02-07T00:51:32;84.03;;;31.17;;
19167;SDS011;9716;53.114;18.040;2023-02-07T00:54:01;83.20;;;30.07;;
19167;SDS011;9716;53.114;18.040;2023-02-07T00:56:31;70.17;;;31.47;;
19167;SDS011;9716;53.114;18.040;2023-02-07T00:59:00;87.70;;;32.57;;
19167;SDS011;9716;53.114;18.040;2023-02-07T01:01:29;78.17;;;32.53;;
19167;SDS011;9716;53.114;18.040;2023-02-07T01:03:59;79.60;;;31.17;;
19167;SDS011;9716;53.114;18.040;2023-02-07T01:06:27;104.07;;;32.63;;
19167;SDS011;9716;53.114;18.040;2023-02-07T01:09:00;84.07;;;32.10;;
19167;SDS011;9716;53.114;18.040;2023-02-07T01:11:30;71.07;;;32.73;;
19167;SDS011;9716;53.114;18.040;2023-02-07T01:13:59;87.77;;;32.60;;
19167;SDS011;9716;53.114;18.040;2023-02-07T01:16:29;83.10;;;34.00;;
19167;SDS011;9716;53.114;18.040;2023-02-07T01:18:59;90.10;;;33.47;;
19167;SDS011;9716;53.114;18.040;2023-02-07T01:21:29;89.50;;;31.80;;
19167;SDS011;9716;53.114;18.040;2023-02-07T01:23:58;99.57;;;35.00;;
19167;SDS011;9716;53.114;18.040;2023-02-07T01:26:26;98.63;;;31.60;;
19167;SDS011;9716;53.114;18.040;2023-02-07T01:28:57;81.27;;;30.00;;
19167;SDS011;9716;53.114;18.040;2023-02-07T01:31:25;76.27;;;28.60;;
19167;SDS011;9716;53.114;18.040;2023-02-07T01:33:54;75.97;;;28.13;;
19167;SDS011;9716;53.114;18.040;2023-02-07T01:36:24;76.97;;;29.20;;
19167;SDS011;9716;53.114;18.040;2023-02-07T01:38:53;70.27;;;28.97;;
19167;SDS011;9716;53.114;18.040;2023-02-07T01:41:23;80.77;;;31.87;;
19167;SDS011;9716;53.114;18.040;2023-02-07T01:43:58;66.00;;;27.80;;
19167;SDS011;9716;53.114;18.040;2023-02-07T01:46:29;69.03;;;26.10;;
19167;SDS011;9716;53.114;18.040;2023-02-07T01:48:59;75.30;;;30.57;;
19167;SDS011;9716;53.114;18.040;2023-02-07T01:51:31;83.13;;;27.23;;
19167;SDS011;9716;53.114;18.040;2023-02-07T01:54:01;73.47;;;28.20;;
19167;SDS011;9716;53.114;18.040;2023-02-07T01:56:32;67.13;;;28.60;;
19167;SDS011;9716;53.114;18.040;2023-02-07T01:59:03;61.67;;;26.93;;
19167;SDS011;9716;53.114;18.040;2023-02-07T02:01:32;62.47;;;27.23;;
19167;SDS011;9716;53.114;18.040;2023-02-07T02:04:02;56.77;;;25.67;;
19167;SDS011;9716;53.114;18.040;2023-02-07T02:06:31;66.27;;;24.60;;
19167;SDS011;9716;53.114;18.040;2023-02-07T02:09:06;79.00;;;26.53;;
19167;SDS011;9716;53.114;18.040;2023-02-07T02:11:42;62.80;;;27.13;;
19167;SDS011;9716;53.114;18.040;2023-02-07T02:14:41;71.70;;;25.23;;
19167;SDS011;9716;53.114;18.040;2023-02-07T02:17:21;57.60;;;24.00;;
19167;SDS011;9716;53.114;18.040;2023-02-07T02:23:03;51.13;;;22.90;;
19167;SDS011;9716;53.114;18.040;2023-02-07T02:32:12;59.57;;;24.13;;
19167;SDS011;9716;53.114;18.040;2023-02-07T02:35:06;55.73;;;20.23;;
19167;SDS011;9716;53.114;18.040;2023-02-07T02:37:59;43.00;;;19.53;;
19167;SDS011;9716;53.114;18.040;2023-02-07T02:40:38;52.97;;;20.73;;
19167;SDS011;9716;53.114;18.040;2023-02-07T02:43:12;40.47;;;18.73;;
19167;SDS011;9716;53.114;18.040;2023-02-07T02:45:48;45.87;;;21.20;;
19167;SDS011;9716;53.114;18.040;2023-02-07T02:48:20;42.00;;;17.90;;
19167;SDS011;9716;53.114;18.040;2023-02-07T02:50:50;47.00;;;17.87;;
19167;SDS011;9716;53.114;18.040;2023-02-07T02:53:22;42.60;;;17.37;;
19167;SDS011;9716;53.114;18.040;2023-02-07T02:58:46;39.57;;;16.77;;
19167;SDS011;9716;53.114;18.040;2023-02-07T03:01:27;36.67;;;15.80;;
19167;SDS011;9716;53.114;18.040;2023-02-07T03:04:17;44.07;;;17.97;;
19167;SDS011;9716;53.114;18.040;2023-02-07T03:07:00;37.27;;;14.73;;
19167;SDS011;9716;53.114;18.040;2023-02-07T03:09:40;40.23;;;16.47;;
19167;SDS011;9716;53.114;18.040;2023-02-07T03:12:30;25.87;;;12.77;;
19167;SDS011;9716;53.114;18.040;2023-02-07T03:15:05;34.73;;;14.43;;
19167;SDS011;9716;53.114;18.040;2023-02-07T03:17:41;30.33;;;14.37;;
19167;SDS011;9716;53.114;18.040;2023-02-07T03:20:13;38.07;;;14.87;;
19167;SDS011;9716;53.114;18.040;2023-02-07T03:22:49;29.67;;;13.50;;
19167;SDS011;9716;53.114;18.040;2023-02-07T03:25:20;27.90;;;13.83;;
19167;SDS011;9716;53.114;18.040;2023-02-07T03:27:51;23.20;;;12.67;;
19167;SDS011;9716;53.114;18.040;2023-02-07T03:30:22;34.63;;;13.27;;
19167;SDS011;9716;53.114;18.040;2023-02-07T03:32:54;26.20;;;12.60;;
19167;SDS011;9716;53.114;18.040;2023-02-07T03:35:26;24.90;;;12.37;;
19167;SDS011;9716;53.114;18.040;2023-02-07T03:37:59;30.90;;;12.43;;
19167;SDS011;9716;53.114;18.040;2023-02-07T03:40:31;27.27;;;12.60;;
19167;SDS011;9716;53.114;18.040;2023-02-07T03:43:07;23.43;;;11.07;;
19167;SDS011;9716;53.114;18.040;2023-02-07T03:45:40;23.03;;;10.63;;
19167;SDS011;9716;53.114;18.040;2023-02-07T03:48:09;23.47;;;11.80;;
19167;SDS011;9716;53.114;18.040;2023-02-07T03:50:37;27.87;;;12.43;;
19167;SDS011;9716;53.114;18.040;2023-02-07T03:53:07;30.47;;;12.63;;
19167;SDS011;9716;53.114;18.040;2023-02-07T03:55:36;21.37;;;11.00;;
19167;SDS011;9716;53.114;18.040;2023-02-07T03:58:05;23.83;;;10.70;;
19167;SDS011;9716;53.114;18.040;2023-02-07T04:00:34;22.83;;;11.50;;
19167;SDS011;9716;53.114;18.040;2023-02-07T04:03:03;30.60;;;11.13;;
19167;SDS011;9716;53.114;18.040;2023-02-07T04:05:32;22.63;;;11.30;;
19167;SDS011;9716;53.114;18.040;2023-02-07T04:08:00;30.70;;;11.10;;
19167;SDS011;9716;53.114;18.040;2023-02-07T04:10:30;25.80;;;11.07;;
19167;SDS011;9716;53.114;18.040;2023-02-07T04:12:59;23.83;;;10.40;;
19167;SDS011;9716;53.114;18.040;2023-02-07T04:15:28;28.40;;;11.70;;
19167;SDS011;9716;53.114;18.040;2023-02-07T04:17:56;31.10;;;12.27;;
19167;SDS011;9716;53.114;18.040;2023-02-07T04:20:24;20.77;;;10.10;;
19167;SDS011;9716;53.114;18.040;2023-02-07T04:22:52;21.93;;;10.57;;
19167;SDS011;9716;53.114;18.040;2023-02-07T04:25:21;28.23;;;11.50;;
19167;SDS011;9716;53.114;18.040;2023-02-07T04:27:50;21.10;;;9.77;;
19167;SDS011;9716;53.114;18.040;2023-02-07T04:30:19;23.40;;;9.43;;
19167;SDS011;9716;53.114;18.040;2023-02-07T04:32:47;18.47;;;9.20;;
19167;SDS011;9716;53.114;18.040;2023-02-07T04:35:16;17.03;;;9.63;;
19167;SDS011;9716;53.114;18.040;2023-02-07T04:37:44;18.87;;;9.63;;
19167;SDS011;9716;53.114;18.040;2023-02-07T04:40:13;22.87;;;10.50;;
19167;SDS011;9716;53.114;18.040;2023-02-07T04:42:41;26.30;;;11.13;;
19167;SDS011;9716;53.114;18.040;2023-02-07T04:45:11;17.87;;;9.23;;
19167;SDS011;9716;53.114;18.040;2023-02-07T04:47:39;16.30;;;8.83;;
19167;SDS011;9716;53.114;18.040;2023-02-07T04:50:08;25.37;;;9.50;;
19167;SDS011;9716;53.114;18.040;2023-02-07T04:52:36;14.67;;;8.33;;
19167;SDS011;9716;53.114;18.040;2023-02-07T04:55:07;14.00;;;7.50;;
19167;SDS011;9716;53.114;18.040;2023-02-07T04:57:36;15.93;;;7.97;;
19167;SDS011;9716;53.114;18.040;2023-02-07T05:00:05;18.07;;;8.27;;
19167;SDS011;9716;53.114;18.040;2023-02-07T05:02:35;18.63;;;8.67;;
19167;SDS011;9716;53.114;18.040;2023-02-07T05:05:04;14.83;;;7.57;;
19167;SDS011;9716;53.114;18.040;2023-02-07T05:07:32;14.03;;;7.13;;
19167;SDS011;9716;53.114;18.040;2023-02-07T05:10:01;17.03;;;8.20;;
19167;SDS011;9716;53.114;18.040;2023-02-07T05:12:29;11.47;;;6.63;;
19167;SDS011;9716;53.114;18.040;2023-02-07T05:14:58;13.50;;;6.83;;
19167;SDS011;9716;53.114;18.040;2023-02-07T05:17:26;14.47;;;7.03;;
19167;SDS011;9716;53.114;18.040;2023-02-07T05:19:57;13.37;;;6.10;;
19167;SDS011;9716;53.114;18.040;2023-02-07T05:22:26;11.63;;;5.90;;
19167;SDS011;9716;53.114;18.040;2023-02-07T05:24:54;12.07;;;5.70;;
19167;SDS011;9716;53.114;18.040;2023-02-07T05:27:22;12.57;;;5.83;;
19167;SDS011;9716;53.114;18.040;2023-02-07T05:29:51;8.47;;;4.73;;
19167;SDS011;9716;53.114;18.040;2023-02-07T05:32:19;6.27;;;4.40;;
19167;SDS011;9716;53.114;18.040;2023-02-07T05:35:07;9.60;;;4.83;;
19167;SDS011;9716;53.114;18.040;2023-02-07T05:37:35;10.33;;;3.70;;
19167;SDS011;9716;53.114;18.040;2023-02-07T05:40:04;7.13;;;3.87;;
19167;SDS011;9716;53.114;18.040;2023-02-07T05:42:33;7.60;;;4.30;;
19167;SDS011;9716;53.114;18.040;2023-02-07T05:45:02;8.83;;;3.87;;
19167;SDS011;9716;53.114;18.040;2023-02-07T05:47:30;8.47;;;4.10;;
19167;SDS011;9716;53.114;18.040;2023-02-07T05:49:59;7.00;;;3.60;;
19167;SDS011;9716;53.114;18.040;2023-02-07T05:52:29;7.33;;;3.87;;
19167;SDS011;9716;53.114;18.040;2023-02-07T05:55:01;5.57;;;3.97;;
19167;SDS011;9716;53.114;18.040;2023-02-07T05:57:29;13.13;;;4.87;;
19167;SDS011;9716;53.114;18.040;2023-02-07T05:59:58;6.77;;;3.97;;
19167;SDS011;9716;53.114;18.040;2023-02-07T06:02:27;6.53;;;3.97;;
19167;SDS011;9716;53.114;18.040;2023-02-07T06:04:55;6.53;;;3.10;;
19167;SDS011;9716;53.114;18.040;2023-02-07T06:07:24;7.00;;;3.80;;
19167;SDS011;9716;53.114;18.040;2023-02-07T06:09:54;6.83;;;3.67;;
19167;SDS011;9716;53.114;18.040;2023-02-07T06:12:22;4.47;;;3.03;;
19167;SDS011;9716;53.114;18.040;2023-02-07T06:14:51;9.17;;;4.07;;
19167;SDS011;9716;53.114;18.040;2023-02-07T06:17:20;4.70;;;3.40;;
19167;SDS011;9716;53.114;18.040;2023-02-07T06:19:48;9.03;;;3.77;;
19167;SDS011;9716;53.114;18.040;2023-02-07T06:22:19;4.97;;;3.13;;
19167;SDS011;9716;53.114;18.040;2023-02-07T06:24:47;5.53;;;3.43;;
19167;SDS011;9716;53.114;18.040;2023-02-07T06:27:17;7.13;;;3.63;;
19167;SDS011;9716;53.114;18.040;2023-02-07T06:29:46;10.57;;;4.17;;
19167;SDS011;9716;53.114;18.040;2023-02-07T06:32:15;5.80;;;3.80;;
19167;SDS011;9716;53.114;18.040;2023-02-07T06:34:43;5.23;;;3.60;;
19167;SDS011;9716;53.114;18.040;2023-02-07T06:37:12;5.73;;;3.70;;
19167;SDS011;9716;53.114;18.040;2023-02-07T06:39:40;6.30;;;3.37;;
19167;SDS011;9716;53.114;18.040;2023-02-07T06:42:09;16.37;;;4.93;;
19167;SDS011;9716;53.114;18.040;2023-02-07T06:44:38;5.93;;;3.50;;
19167;SDS011;9716;53.114;18.040;2023-02-07T06:47:07;9.40;;;3.50;;
19167;SDS011;9716;53.114;18.040;2023-02-07T06:49:36;6.83;;;4.00;;
19167;SDS011;9716;53.114;18.040;2023-02-07T06:52:05;6.53;;;3.50;;
19167;SDS011;9716;53.114;18.040;2023-02-07T06:54:34;10.07;;;3.90;;
19167;SDS011;9716;53.114;18.040;2023-02-07T06:57:02;10.83;;;4.63;;
19167;SDS011;9716;53.114;18.040;2023-02-07T06:59:31;9.77;;;4.00;;
19167;SDS011;9716;53.114;18.040;2023-02-07T07:02:01;5.57;;;3.70;;
19167;SDS011;9716;53.114;18.040;2023-02-07T07:04:29;5.73;;;3.83;;
19167;SDS011;9716;53.114;18.040;2023-02-07T07:06:58;5.07;;;3.53;;
19167;SDS011;9716;53.114;18.040;2023-02-07T07:09:26;5.10;;;3.77;;
19167;SDS011;9716;53.114;18.040;2023-02-07T07:11:55;11.47;;;4.50;;
19167;SDS011;9716;53.114;18.040;2023-02-07T07:14:24;7.60;;;4.53;;
19167;SDS011;9716;53.114;18.040;2023-02-07T07:16:52;7.53;;;4.93;;
19167;SDS011;9716;53.114;18.040;2023-02-07T07:19:24;11.57;;;4.47;;
19167;SDS011;9716;53.114;18.040;2023-02-07T07:21:52;8.17;;;5.00;;
19167;SDS011;9716;53.114;18.040;2023-02-07T07:24:21;8.53;;;4.50;;
19167;SDS011;9716;53.114;18.040;2023-02-07T07:26:50;8.37;;;4.47;;
19167;SDS011;9716;53.114;18.040;2023-02-07T07:29:19;6.83;;;4.10;;
19167;SDS011;9716;53.114;18.040;2023-02-07T07:31:48;8.87;;;5.20;;
19167;SDS011;9716;53.114;18.040;2023-02-07T07:34:17;7.70;;;4.00;;
19167;SDS011;9716;53.114;18.040;2023-02-07T07:36:47;13.57;;;5.33;;
19167;SDS011;9716;53.114;18.040;2023-02-07T07:39:15;5.87;;;4.17;;
19167;SDS011;9716;53.114;18.040;2023-02-07T07:41:43;8.27;;;4.50;;
19167;SDS011;9716;53.114;18.040;2023-02-07T07:44:12;10.33;;;4.63;;
19167;SDS011;9716;53.114;18.040;2023-02-07T07:46:40;10.30;;;5.27;;
19167;SDS011;9716;53.114;18.040;2023-02-07T07:49:09;11.93;;;4.97;;
19167;SDS011;9716;53.114;18.040;2023-02-07T07:51:37;11.93;;;4.60;;
19167;SDS011;9716;53.114;18.040;2023-02-07T07:54:07;11.67;;;5.03;;
19167;SDS011;9716;53.114;18.040;2023-02-07T07:56:40;10.87;;;4.57;;
19167;SDS011;9716;53.114;18.040;2023-02-07T07:59:09;10.37;;;5.17;;
19167;SDS011;9716;53.114;18.040;2023-02-07T08:01:48;11.60;;;4.47;;
19167;SDS011;9716;53.114;18.040;2023-02-07T08:04:17;6.83;;;4.33;;
19167;SDS011;9716;53.114;18.040;2023-02-07T08:06:46;8.57;;;4.50;;
19167;SDS011;9716;53.114;18.040;2023-02-07T08:09:16;8.67;;;4.77;;
19167;SDS011;9716;53.114;18.040;2023-02-07T08:11:44;7.70;;;3.93;;
19167;SDS011;9716;53.114;18.040;2023-02-07T08:14:13;9.63;;;4.37;;
19167;SDS011;9716;53.114;18.040;2023-02-07T08:16:41;6.70;;;4.17;;
19167;SDS011;9716;53.114;18.040;2023-02-07T08:19:10;9.33;;;4.27;;
19167;SDS011;9716;53.114;18.040;2023-02-07T08:21:38;9.77;;;4.80;;
19167;SDS011;9716;53.114;18.040;2023-02-07T08:24:10;14.87;;;4.20;;
19167;SDS011;9716;53.114;18.040;2023-02-07T08:26:40;12.40;;;4.20;;
19167;SDS011;9716;53.114;18.040;2023-02-07T08:29:08;7.43;;;3.80;;
19167;SDS011;9716;53.114;18.040;2023-02-07T08:31:38;12.37;;;4.13;;
19167;SDS011;9716;53.114;18.040;2023-02-07T08:34:07;9.17;;;4.40;;
19167;SDS011;9716;53.114;18.040;2023-02-07T08:36:37;5.77;;;3.93;;
19167;SDS011;9716;53.114;18.040;2023-02-07T08:39:06;7.03;;;4.03;;
19167;SDS011;9716;53.114;18.040;2023-02-07T08:41:34;12.00;;;4.83;;
19167;SDS011;9716;53.114;18.040;2023-02-07T08:44:04;9.47;;;5.00;;
19167;SDS011;9716;53.114;18.040;2023-02-07T08:46:32;5.40;;;3.53;;
19167;SDS011;9716;53.114;18.040;2023-02-07T08:49:01;9.90;;;4.37;;
19167;SDS011;9716;53.114;18.040;2023-02-07T08:51:29;7.30;;;4.17;;
19167;SDS011;9716;53.114;18.040;2023-02-07T08:53:58;8.00;;;4.53;;
19167;SDS011;9716;53.114;18.040;2023-02-07T08:56:26;8.63;;;4.50;;
19167;SDS011;9716;53.114;18.040;2023-02-07T08:58:55;9.00;;;4.40;;
19167;SDS011;9716;53.114;18.040;2023-02-07T09:01:24;12.07;;;4.90;;
19167;SDS011;9716;53.114;18.040;2023-02-07T09:03:53;9.83;;;5.13;;
19167;SDS011;9716;53.114;18.040;2023-02-07T09:06:22;10.20;;;4.93;;
19167;SDS011;9716;53.114;18.040;2023-02-07T09:08:51;16.10;;;4.93;;
19167;SDS011;9716;53.114;18.040;2023-02-07T09:11:20;10.67;;;5.30;;
19167;SDS011;9716;53.114;18.040;2023-02-07T09:13:49;7.40;;;5.23;;
19167;SDS011;9716;53.114;18.040;2023-02-07T09:16:17;16.20;;;5.43;;
19167;SDS011;9716;53.114;18.040;2023-02-07T09:18:47;11.23;;;5.43;;
19167;SDS011;9716;53.114;18.040;2023-02-07T09:21:16;9.43;;;4.37;;
19167;SDS011;9716;53.114;18.040;2023-02-07T09:23:45;9.07;;;4.77;;
19167;SDS011;9716;53.114;18.040;2023-02-07T09:26:14;9.33;;;4.87;;
19167;SDS011;9716;53.114;18.040;2023-02-07T09:28:44;7.30;;;5.10;;
19167;SDS011;9716;53.114;18.040;2023-02-07T09:31:14;10.27;;;5.23;;
19167;SDS011;9716;53.114;18.040;2023-02-07T09:33:43;13.00;;;5.90;;
19167;SDS011;9716;53.114;18.040;2023-02-07T09:36:17;9.20;;;5.37;;
19167;SDS011;9716;53.114;18.040;2023-02-07T09:38:46;9.63;;;6.00;;
19167;SDS011;9716;53.114;18.040;2023-02-07T09:41:18;15.33;;;5.93;;
19167;SDS011;9716;53.114;18.040;2023-02-07T09:43:58;8.43;;;5.07;;
19167;SDS011;9716;53.114;18.040;2023-02-07T09:46:34;14.13;;;5.73;;
19167;SDS011;9716;53.114;18.040;2023-02-07T09:49:08;9.33;;;5.40;;
19167;SDS011;9716;53.114;18.040;2023-02-07T09:51:43;14.07;;;5.00;;
19167;SDS011;9716;53.114;18.040;2023-02-07T09:54:14;12.47;;;4.70;;
19167;SDS011;9716;53.114;18.040;2023-02-07T09:56:49;12.60;;;5.67;;
19167;SDS011;9716;53.114;18.040;2023-02-07T09:59:21;8.57;;;5.23;;
19167;SDS011;9716;53.114;18.040;2023-02-07T10:01:55;15.33;;;6.10;;
19167;SDS011;9716;53.114;18.040;2023-02-07T10:04:28;8.33;;;5.07;;
19167;SDS011;9716;53.114;18.040;2023-02-07T10:07:03;11.23;;;5.30;;
19167;SDS011;9716;53.114;18.040;2023-02-07T10:09:36;9.57;;;4.70;;
19167;SDS011;9716;53.114;18.040;2023-02-07T10:12:08;14.07;;;5.73;;
19167;SDS011;9716;53.114;18.040;2023-02-07T10:15:03;9.80;;;5.13;;
19167;SDS011;9716;53.114;18.040;2023-02-07T10:17:45;9.27;;;4.60;;
19167;SDS011;9716;53.114;18.040;2023-02-07T10:20:32;6.67;;;4.10;;
19167;SDS011;9716;53.114;18.040;2023-02-07T10:23:11;9.27;;;5.03;;
19167;SDS011;9716;53.114;18.040;2023-02-07T10:26:03;9.17;;;4.47;;
19167;SDS011;9716;53.114;18.040;2023-02-07T10:28:44;14.27;;;4.30;;
19167;SDS011;9716;53.114;18.040;2023-02-07T10:31:25;12.70;;;5.33;;
19167;SDS011;9716;53.114;18.040;2023-02-07T10:33:56;8.93;;;4.17;;
19167;SDS011;9716;53.114;18.040;2023-02-07T10:36:28;7.27;;;4.10;;
19167;SDS011;9716;53.114;18.040;2023-02-07T10:39:03;10.40;;;4.47;;
19167;SDS011;9716;53.114;18.040;2023-02-07T10:41:37;10.37;;;3.23;;
19167;SDS011;9716;53.114;18.040;2023-02-07T10:44:08;3.83;;;2.93;;
19167;SDS011;9716;53.114;18.040;2023-02-07T10:46:40;6.40;;;3.30;;
19167;SDS011;9716;53.114;18.040;2023-02-07T10:49:14;10.63;;;3.70;;
19167;SDS011;9716;53.114;18.040;2023-02-07T10:51:51;13.77;;;3.90;;
19167;SDS011;9716;53.114;18.040;2023-02-07T10:54:24;12.00;;;4.17;;
19167;SDS011;9716;53.114;18.040;2023-02-07T10:56:54;10.40;;;3.40;;
19167;SDS011;9716;53.114;18.040;2023-02-07T10:59:35;6.37;;;3.90;;
19167;SDS011;9716;53.114;18.040;2023-02-07T11:02:31;8.40;;;3.90;;
19167;SDS011;9716;53.114;18.040;2023-02-07T11:05:26;7.37;;;3.90;;
19167;SDS011;9716;53.114;18.040;2023-02-07T11:07:58;7.40;;;3.43;;
19167;SDS011;9716;53.114;18.040;2023-02-07T11:10:31;13.80;;;4.23;;
19167;SDS011;9716;53.114;18.040;2023-02-07T11:13:03;7.53;;;4.23;;
19167;SDS011;9716;53.114;18.040;2023-02-07T11:15:37;9.43;;;4.57;;
19167;SDS011;9716;53.114;18.040;2023-02-07T11:18:22;14.87;;;4.53;;
19167;SDS011;9716;53.114;18.040;2023-02-07T11:21:04;5.63;;;3.73;;
19167;SDS011;9716;53.114;18.040;2023-02-07T11:23:34;5.43;;;3.37;;
19167;SDS011;9716;53.114;18.040;2023-02-07T11:26:03;6.97;;;3.57;;
19167;SDS011;9716;53.114;18.040;2023-02-07T11:28:32;10.23;;;4.13;;
19167;SDS011;9716;53.114;18.040;2023-02-07T11:31:01;6.87;;;3.20;;
19167;SDS011;9716;53.114;18.040;2023-02-07T11:33:34;7.10;;;3.70;;
19167;SDS011;9716;53.114;18.040;2023-02-07T11:36:05;10.90;;;3.77;;
19167;SDS011;9716;53.114;18.040;2023-02-07T11:38:38;11.10;;;3.70;;
19167;SDS011;9716;53.114;18.040;2023-02-07T11:41:16;6.40;;;2.60;;
19167;SDS011;9716;53.114;18.040;2023-02-07T11:43:53;7.10;;;3.83;;
19167;SDS011;9716;53.114;18.040;2023-02-07T11:46:29;9.73;;;3.40;;
19167;SDS011;9716;53.114;18.040;2023-02-07T11:49:01;5.80;;;3.20;;
19167;SDS011;9716;53.114;18.040;2023-02-07T11:51:34;6.80;;;3.47;;
19167;SDS011;9716;53.114;18.040;2023-02-07T11:54:04;9.27;;;3.47;;
19167;SDS011;9716;53.114;18.040;2023-02-07T11:56:36;7.93;;;3.60;;
19167;SDS011;9716;53.114;18.040;2023-02-07T11:59:10;6.57;;;3.23;;
19167;SDS011;9716;53.114;18.040;2023-02-07T12:01:43;7.10;;;3.50;;
19167;SDS011;9716;53.114;18.040;2023-02-07T12:04:18;9.13;;;3.57;;
19167;SDS011;9716;53.114;18.040;2023-02-07T12:06:52;6.97;;;4.20;;
19167;SDS011;9716;53.114;18.040;2023-02-07T12:09:28;10.90;;;3.13;;
19167;SDS011;9716;53.114;18.040;2023-02-07T12:12:03;4.80;;;3.03;;
19167;SDS011;9716;53.114;18.040;2023-02-07T12:14:38;5.47;;;2.87;;
19167;SDS011;9716;53.114;18.040;2023-02-07T12:17:13;6.47;;;3.13;;
19167;SDS011;9716;53.114;18.040;2023-02-07T12:19:48;6.23;;;3.30;;
19167;SDS011;9716;53.114;18.040;2023-02-07T12:22:22;8.03;;;2.67;;
19167;SDS011;9716;53.114;18.040;2023-02-07T12:24:56;6.20;;;3.17;;
19167;SDS011;9716;53.114;18.040;2023-02-07T12:27:30;5.80;;;3.40;;
19167;SDS011;9716;53.114;18.040;2023-02-07T12:30:05;13.80;;;3.67;;
19167;SDS011;9716;53.114;18.040;2023-02-07T12:32:44;7.37;;;3.03;;
19167;SDS011;9716;53.114;18.040;2023-02-07T12:35:19;11.10;;;3.43;;
19167;SDS011;9716;53.114;18.040;2023-02-07T12:37:55;5.07;;;3.23;;
19167;SDS011;9716;53.114;18.040;2023-02-07T12:40:30;8.27;;;2.73;;
19167;SDS011;9716;53.114;18.040;2023-02-07T12:43:04;5.37;;;2.97;;
19167;SDS011;9716;53.114;18.040;2023-02-07T12:45:42;6.83;;;2.97;;
19167;SDS011;9716;53.114;18.040;2023-02-07T12:48:31;8.20;;;3.03;;
19167;SDS011;9716;53.114;18.040;2023-02-07T12:51:15;9.60;;;2.77;;
19167;SDS011;9716;53.114;18.040;2023-02-07T12:53:53;7.30;;;3.23;;
19167;SDS011;9716;53.114;18.040;2023-02-07T12:56:36;3.60;;;2.40;;
19167;SDS011;9716;53.114;18.040;2023-02-07T12:59:12;4.50;;;2.77;;
19167;SDS011;9716;53.114;18.040;2023-02-07T13:01:45;3.50;;;2.30;;
19167;SDS011;9716;53.114;18.040;2023-02-07T13:04:24;4.87;;;3.50;;
19167;SDS011;9716;53.114;18.040;2023-02-07T13:07:27;5.40;;;3.00;;
19167;SDS011;9716;53.114;18.040;2023-02-07T13:10:09;3.23;;;2.20;;
19167;SDS011;9716;53.114;18.040;2023-02-07T13:12:49;8.97;;;3.23;;
19167;SDS011;9716;53.114;18.040;2023-02-07T13:15:29;6.00;;;2.70;;
19167;SDS011;9716;53.114;18.040;2023-02-07T13:18:06;5.03;;;2.83;;
19167;SDS011;9716;53.114;18.040;2023-02-07T13:20:45;5.07;;;2.97;;
19167;SDS011;9716;53.114;18.040;2023-02-07T13:23:21;7.23;;;3.60;;
19167;SDS011;9716;53.114;18.040;2023-02-07T13:25:53;8.67;;;2.87;;
19167;SDS011;9716;53.114;18.040;2023-02-07T13:28:26;6.30;;;2.97;;
19167;SDS011;9716;53.114;18.040;2023-02-07T13:31:07;9.77;;;3.67;;
19167;SDS011;9716;53.114;18.040;2023-02-07T13:33:38;3.07;;;2.10;;
19167;SDS011;9716;53.114;18.040;2023-02-07T13:36:10;7.50;;;2.87;;
19167;SDS011;9716;53.114;18.040;2023-02-07T13:38:59;9.17;;;2.83;;
19167;SDS011;9716;53.114;18.040;2023-02-07T13:41:39;6.57;;;3.40;;
19167;SDS011;9716;53.114;18.040;2023-02-07T13:44:18;8.77;;;3.17;;
19167;SDS011;9716;53.114;18.040;2023-02-07T13:49:46;7.17;;;2.77;;
19167;SDS011;9716;53.114;18.040;2023-02-07T13:52:21;17.63;;;2.87;;
19167;SDS011;9716;53.114;18.040;2023-02-07T13:54:58;5.67;;;2.63;;
19167;SDS011;9716;53.114;18.040;2023-02-07T13:57:38;4.87;;;2.77;;
19167;SDS011;9716;53.114;18.040;2023-02-07T14:00:26;5.63;;;3.20;;
19167;SDS011;9716;53.114;18.040;2023-02-07T14:02:57;8.43;;;3.47;;
19167;SDS011;9716;53.114;18.040;2023-02-07T14:05:28;10.10;;;3.53;;
19167;SDS011;9716;53.114;18.040;2023-02-07T14:07:59;6.20;;;3.20;;
19167;SDS011;9716;53.114;18.040;2023-02-07T14:10:40;9.93;;;2.80;;
19167;SDS011;9716;53.114;18.040;2023-02-07T14:13:27;6.33;;;2.83;;
19167;SDS011;9716;53.114;18.040;2023-02-07T14:16:02;5.10;;;2.97;;
19167;SDS011;9716;53.114;18.040;2023-02-07T14:18:39;5.80;;;2.83;;
19167;SDS011;9716;53.114;18.040;2023-02-07T14:24:16;8.33;;;2.70;;
19167;SDS011;9716;53.114;18.040;2023-02-07T14:26:50;20.47;;;3.60;;
19167;SDS011;9716;53.114;18.040;2023-02-07T14:29:40;10.27;;;3.20;;
19167;SDS011;9716;53.114;18.040;2023-02-07T14:32:37;10.73;;;3.37;;
19167;SDS011;9716;53.114;18.040;2023-02-07T14:35:28;11.17;;;3.40;;
19167;SDS011;9716;53.114;18.040;2023-02-07T14:38:00;7.30;;;3.63;;
19167;SDS011;9716;53.114;18.040;2023-02-07T14:40:52;6.47;;;4.03;;
19167;SDS011;9716;53.114;18.040;2023-02-07T14:43:40;7.90;;;4.00;;
19167;SDS011;9716;53.114;18.040;2023-02-07T14:46:26;6.00;;;3.70;;
19167;SDS011;9716;53.114;18.040;2023-02-07T14:49:01;7.93;;;3.50;;
19167;SDS011;9716;53.114;18.040;2023-02-07T14:51:38;7.27;;;4.40;;
19167;SDS011;9716;53.114;18.040;2023-02-07T14:54:15;10.40;;;5.07;;
19167;SDS011;9716;53.114;18.040;2023-02-07T14:56:50;19.03;;;5.57;;
19167;SDS011;9716;53.114;18.040;2023-02-07T14:59:27;12.40;;;4.57;;
19167;SDS011;9716;53.114;18.040;2023-02-07T15:05:18;13.37;;;5.43;;
19167;SDS011;9716;53.114;18.040;2023-02-07T15:07:53;9.47;;;5.23;;
19167;SDS011;9716;53.114;18.040;2023-02-07T15:10:26;11.27;;;5.43;;
19167;SDS011;9716;53.114;18.040;2023-02-07T15:12:55;13.57;;;5.60;;
19167;SDS011;9716;53.114;18.040;2023-02-07T15:15:25;14.00;;;4.43;;
19167;SDS011;9716;53.114;18.040;2023-02-07T15:17:56;13.50;;;5.90;;
19167;SDS011;9716;53.114;18.040;2023-02-07T15:20:28;13.47;;;6.10;;
19167;SDS011;9716;53.114;18.040;2023-02-07T15:23:00;19.60;;;6.27;;
19167;SDS011;9716;53.114;18.040;2023-02-07T15:25:30;16.97;;;6.10;;
19167;SDS011;9716;53.114;18.040;2023-02-07T15:28:00;15.43;;;6.33;;
19167;SDS011;9716;53.114;18.040;2023-02-07T15:30:32;16.67;;;7.13;;